This is the latest recevied weather packets stored in our database for station/object F1ZRP-13. If no packets are shown the sender has not sent any weather packets the latest 10 day(s).
| Time | Temp. | Humidity | Pressure | Rain* | Wind** | Luminosity | Snow |
|---|---|---|---|---|---|---|---|
| 1777836822 | 13.89° C | 76% | 1014.8 hPa | - | - | - | - |
| 1777835763 | 13.89° C | 73% | 1014.7 hPa | - | - | - | - |
| 1777834825 | 14.44° C | 73% | 1014.6 hPa | - | - | - | - |
| 1777834054 | 14.44° C | 72% | 1014.6 hPa | - | - | - | - |
| 1777833259 | 15° C | 70% | 1014.4 hPa | - | - | - | - |
| 1777832230 | 15.56° C | 67% | 1014.3 hPa | - | - | - | - |
| 1777831413 | 16.11° C | 64% | 1014.2 hPa | - | - | - | - |
| 1777830621 | 16.67° C | 61% | 1014.1 hPa | - | - | - | - |
| 1777829749 | 17.22° C | 59% | 1014.1 hPa | - | - | - | - |
| 1777828575 | 17.78° C | 59% | 1014.3 hPa | - | - | - | - |
| 1777827429 | 17.22° C | 62% | 1014.4 hPa | - | - | - | - |
| 1777826717 | 18.33° C | 61% | 1014.5 hPa | - | - | - | - |
| 1777825573 | 17.22° C | 65% | 1014.5 hPa | - | - | - | - |
| 1777824859 | 17.22° C | 68% | 1014.6 hPa | - | - | - | - |
| 1777823831 | 16.67° C | 70% | 1014.8 hPa | - | - | - | - |
| 1777822812 | 17.22° C | 71% | 1014.9 hPa | - | - | - | - |
| 1777822027 | 16.11° C | 74% | 1015 hPa | - | - | - | - |
| 1777821137 | 16.11° C | 75% | 1015.2 hPa | - | - | - | - |
| 1777820079 | 15.56° C | 75% | 1015.2 hPa | - | - | - | - |
| 1777819192 | 15.56° C | 77% | 1015.5 hPa | - | - | - | - |
| 1777818300 | 15.56° C | 73% | 1015.5 hPa | - | - | - | - |
| 1777817384 | 16.11° C | 73% | 1015.4 hPa | - | - | - | - |
| 1777816378 | 15.56° C | 75% | 1015.4 hPa | - | - | - | - |
| 1777815331 | 15° C | 77% | 1015.4 hPa | - | - | - | - |
| 1777814368 | 15° C | 76% | 1015.5 hPa | - | - | - | - |
* Rain since midnight (hover to see other rain measurements)
** Current wind speed in m/s (hover to see current wind gust speed)